South San Francisco, CA

10:07 PM PDT on August 29, 2014 (GMT -0700)
Serra Highlands | Change Station
CLOSE
Current Station
Personal Weather Station
Location: South San Francisco, CA
Elevation: 161 ft
Nearby Weather Stations

Elev 161 ft 37.66 °N, 122.45 °W | Updated 7 minutes ago

Mostly Cloudy
Mostly Cloudy
61.2 °F
Feels Like 61.2 °F
N
5.8
Wind Variable Wind from NNW

Today
High -- | Low -- °F
--% Chance of Precip.
Yesterday
High -- | Low -- °F
Precip. -- in
6:37 AM 7:43 PM
Waxing Crescent, 19% visible
Pressure 29.92 in
Visibility 10.0 miles
Clouds Few 800 ft
Mostly Cloudy 18000 ft
Dew Point 60 °F
Humidity 95%
Rainfall 0.00 in
Snow Depth Not available.
UV 0 out of 12
Pollen 7.40 out of 12
Air Quality Not available.
Flu Activity Not available.
METAR KSFO 300456Z 31010KT 10SM FEW008 BKN180 18/16 A2992 RMK AO2 SLP130 T01780156 $

More Conditions Fewer Conditions

Pressure 29.92 in
Visibility 10.0 miles
Clouds Few 800 ft
Mostly Cloudy 18000 ft
Dew Point 60 °F
Humidity 95%
Rainfall 0.00 in
Snow Depth Not available.
UV 0 out of 12
Pollen 7.40 out of 12
Air Quality Not available.
Flu Activity Not available.
METAR KSFO 300456Z 31010KT 10SM FEW008 BKN180 18/16 A2992 RMK AO2 SLP130 T01780156 $

More Conditions Fewer Conditions

10-Day Weather Forecast

Almanac

Astronomy

Aug. 29, 2014 Rise Set
Actual Time 6:37 AM PDT 7:43 PM PDT
Civil Twilight 6:10 AM PDT 8:09 PM PDT
Nautical Twilight 5:38 AM PDT 8:41 PM PDT
Astronomical Twilight 5:04 AM PDT 9:15 PM PDT
Moon 10:27 AM PDT (8/29) 9:49 PM PDT (8/29)
Length of Visible Light 13h 59m
Length of Day
13h 05m
Tomorrow will be 2m 18s shorter.
Waxing Crescent, 19% of the Moon is Illuminated
Aug 30
Waxing Crescent
Sep 2
First Quarter
Sep 8
Full
Sep 15
Last Quarter
Sep 24
New

Yesterday's Extremes

State Highs State Lows

Community

WunderPhotos

Upload Photos

1,748,459 photos uploaded!

Nearby

Air Quality

  Air Quality AQ Index Pollutant
Yesterday Good
PM2.5
Yesterday Good
OZONE
Friday Good
PM2.5
Saturday Good
PM2.5
Sunday Good
PM2.5
Monday Good
PM2.5
Tuesday Good
PM2.5
Wednesday Good
PM2.5

Snow Depth

Station Depth Elevation
Blue Lakes 0 in 8000 ft
Echo Peak 0 in 7800 ft
Hagan's Meadow 0 in 8000 ft
Leavitt Lake 0 in 9400 ft
CSS Lab 2 in 6900 ft

Earthquake Activity

City Distance Mag. Time & Date
Ridgemark, California 90 miles 3.5 4:32 PM PDT
2014-08-29
The Geysers, California 83 miles 2.7 2:53 PM PDT
2014-08-29
Ridgemark, California 90 miles 3.0 2:44 PM PDT
2014-08-29
Napa, California 41 miles 2.6 11:57 AM PDT
2014-08-27
Minimum magnitude displayed is 2.5.

Coastal Water Temperatures

Place Temperature
No Stations Reporting

Nearby Weather Stations